Logan Peak - 24 Hour Table
Date & TimeSolar
Radiation
(W/m²)
Wind
Speed
(mph)
Wind
Direction
(degrees)
Air
Temperature
(°F)
Relative
Humidity
(%)
Barometeric
Pressure
(inHg)
Max
Wind
Speed
(mph)
2022/05/21 01:00 0 28.8 97 19.5 87 29.76 35.3
2022/05/21 00:00 0 28.4 90 20.9 88 29.79 36.2
2022/05/20 23:00 0 26.1 97 21.8 81 29.79 37.6
2022/05/20 22:00 0 27.2 90 20.4 89 29.79 36.7
2022/05/20 21:00 0 23.7 82 21.9 99 29.76 33.6
2022/05/20 20:00 24 16.0 75 23.2 81 29.75 24.2
2022/05/20 19:00 128 14.1 71 22.6 90 29.76 22.4
2022/05/20 18:00 93 16.4 78 21.6 98 29.73 25.1
2022/05/20 17:00 246 14.9 72 23.4 99 29.71 26.8
2022/05/20 16:00 356 9.5 107 23.3 90 29.71 18.1
2022/05/20 15:00 604 9.5 42 24.7 88 29.71 21.5
2022/05/20 14:00 813 8.4 27 23.2 90 29.70 18.1
2022/05/20 13:00 515 10.3 317 22.8 93 29.71 17.4
2022/05/20 12:00 708 9.0 323 22.4 95 29.68 19.5
2022/05/20 11:00 540 9.0 332 20.4 92 29.69 19.9
2022/05/20 10:00 474 9.5 335 18.8 97 29.68 20.4
2022/05/20 09:00 267 12.5 317 17.0 97 29.64 22.6
2022/05/20 08:00 155 14.5 321 16.1 97 29.63 21.7
2022/05/20 07:00 91 12.0 318 15.3 98 29.64 17.4
2022/05/20 06:00 29 12.6 319 15.2 89 29.60 19.0
2022/05/20 05:00 0 11.7 318 15.5 85 29.59 17.0
2022/05/20 04:00 0 10.9 322 15.8 82 29.59 16.3
2022/05/20 03:00 0 11.3 319 16.1 87 29.59 16.3
2022/05/20 02:00 0 9.5 323 17.1 81 29.59 16.3